createdAt,value
2023-01-02T00:01:45.104Z,16.82
2023-01-02T00:04:47.895Z,16.84
2023-01-02T00:07:50.401Z,16.81
2023-01-02T00:10:53.273Z,16.65
2023-01-02T00:13:57.405Z,16.26
2023-01-02T00:16:59.954Z,16.06
2023-01-02T00:20:02.781Z,15.54
2023-01-02T00:23:05.469Z,15.11
2023-01-02T00:26:08.512Z,14.79
2023-01-02T00:29:14.341Z,14.48
2023-01-02T00:32:17.052Z,14.30
2023-01-02T00:35:19.842Z,14.04
2023-01-02T00:38:22.648Z,13.82
2023-01-02T00:41:25.317Z,13.72
2023-01-02T00:44:29.253Z,13.56
2023-01-02T00:47:31.915Z,13.39
2023-01-02T00:50:34.482Z,13.32
2023-01-02T00:53:37.575Z,13.19
2023-01-02T00:56:40.301Z,13.04
2023-01-02T00:59:44.221Z,13.01
2023-01-02T01:02:46.830Z,12.87
2023-01-02T01:05:49.574Z,12.84
2023-01-02T01:08:52.230Z,12.77
2023-01-02T01:11:54.815Z,12.73
2023-01-02T01:14:59.224Z,12.60
2023-01-02T01:18:01.872Z,12.59
2023-01-02T01:21:07.934Z,12.58
2023-01-02T01:24:10.598Z,12.54
2023-01-02T01:27:13.157Z,12.55
2023-01-02T01:30:17.113Z,12.60
2023-01-02T01:33:19.742Z,12.59
2023-01-02T01:36:23.859Z,12.59
2023-01-02T01:39:26.472Z,12.61
2023-01-02T01:42:33.258Z,12.69
2023-01-02T01:45:37.272Z,12.80
2023-01-02T01:48:39.954Z,12.82
2023-01-02T01:51:46.129Z,12.86
2023-01-02T01:54:53.417Z,12.84
2023-01-02T01:57:58.075Z,12.89
2023-01-02T02:01:02.729Z,12.96
2023-01-02T02:04:05.664Z,12.94
2023-01-02T02:07:08.418Z,12.97
2023-01-02T02:10:12.745Z,12.99
2023-01-02T02:13:15.473Z,12.96
2023-01-02T02:16:29.107Z,12.95
2023-01-02T02:20:00.966Z,12.86
2023-01-02T02:23:33.763Z,12.83
2023-01-02T02:27:00.805Z,12.78
2023-01-02T02:30:12.361Z,12.71
2023-01-02T02:33:24.953Z,12.67
2023-01-02T02:36:30.876Z,12.64
2023-01-02T02:39:39.240Z,12.67
2023-01-02T02:42:46.677Z,12.67
2023-01-02T02:45:56.473Z,12.70
2023-01-02T02:49:05.341Z,12.69
2023-01-02T02:52:09.744Z,12.57
2023-01-02T02:55:15.566Z,12.47
2023-01-02T02:58:20.235Z,12.44
2023-01-02T03:01:30.174Z,12.45
2023-01-02T03:04:33.831Z,12.49
2023-01-02T03:07:39.381Z,12.82
2023-01-02T03:10:48.175Z,13.21
2023-01-02T03:14:00.105Z,13.61
2023-01-02T03:17:05.331Z,14.03
2023-01-02T03:20:10.188Z,14.36
2023-01-02T03:23:16.383Z,14.69
2023-01-02T03:26:21.707Z,14.67
2023-01-02T03:29:29.234Z,14.93
2023-01-02T03:32:35.143Z,15.16
2023-01-02T03:35:41.616Z,15.20
2023-01-02T03:38:46.216Z,15.19
2023-01-02T03:41:53.320Z,15.38
2023-01-02T03:44:59.961Z,15.38
2023-01-02T03:48:09.713Z,15.42
2023-01-02T03:51:12.304Z,15.41
2023-01-02T03:54:15.539Z,15.20
2023-01-02T03:57:24.383Z,15.10
2023-01-02T04:00:31.571Z,15.16
2023-01-02T04:03:37.858Z,15.09
2023-01-02T04:06:43.349Z,15.08
2023-01-02T04:09:46.713Z,15.11
2023-01-02T04:12:52.800Z,15.08
2023-01-02T04:15:56.243Z,15.07
2023-01-02T04:19:03.526Z,15.00
2023-01-02T04:22:09.266Z,15.04
2023-01-02T04:25:14.084Z,15.02
2023-01-02T04:28:19.156Z,15.05
2023-01-02T04:31:24.393Z,15.11
2023-01-02T04:34:29.728Z,15.04
2023-01-02T04:37:35.896Z,14.98
2023-01-02T04:40:38.842Z,14.84
2023-01-02T04:43:41.455Z,14.51
2023-01-02T04:46:44.137Z,14.15
2023-01-02T04:49:48.241Z,13.82
2023-01-02T04:52:50.807Z,13.61
2023-01-02T04:55:56.490Z,13.39
2023-01-02T04:58:59.032Z,13.22
2023-01-02T05:02:01.870Z,13.18
2023-01-02T05:05:07.628Z,13.01
2023-01-02T05:08:15.842Z,12.99
2023-01-02T05:11:20.683Z,12.81
2023-01-02T05:14:23.464Z,12.64
2023-01-02T05:17:25.964Z,12.41
2023-01-02T05:20:29.851Z,12.21
2023-01-02T05:23:50.012Z,12.02
2023-01-02T05:26:52.716Z,11.86
2023-01-02T05:29:55.404Z,11.81
2023-01-02T05:32:58.067Z,11.68
2023-01-02T05:36:02.476Z,11.64
2023-01-02T05:39:08.598Z,11.59
2023-01-02T05:42:11.183Z,11.52
2023-01-02T05:45:13.643Z,11.45
2023-01-02T05:48:16.273Z,11.43
2023-01-02T05:51:20.652Z,11.40
2023-01-02T05:54:23.306Z,11.39
2023-01-02T05:57:26.031Z,11.37
2023-01-02T06:00:28.679Z,11.42
2023-01-02T06:03:31.310Z,11.39
2023-01-02T06:06:36.645Z,11.34
2023-01-02T06:09:39.318Z,11.29
2023-01-02T06:12:41.869Z,11.27
2023-01-02T06:15:45.483Z,11.23
2023-01-02T06:18:48.140Z,11.21
2023-01-02T06:21:52.115Z,11.13
2023-01-02T06:24:54.883Z,11.03
2023-01-02T06:27:57.631Z,11.02
2023-01-02T06:31:01.376Z,10.89
2023-01-02T06:34:03.974Z,10.87
2023-01-02T06:37:10.321Z,10.88
2023-01-02T06:40:13.349Z,10.97
2023-01-02T06:43:15.987Z,11.04
2023-01-02T06:46:20.537Z,11.13
2023-01-02T06:49:23.329Z,11.20
2023-01-02T06:52:28.586Z,11.18
2023-01-02T06:55:31.118Z,11.23
2023-01-02T06:58:35.612Z,11.13
2023-01-02T07:01:38.701Z,11.04
2023-01-02T07:04:41.539Z,10.99
2023-01-02T07:07:45.510Z,10.88
2023-01-02T07:10:52.884Z,10.84
2023-01-02T07:13:56.002Z,10.88
2023-01-02T07:16:58.620Z,10.88
2023-01-02T07:20:02.541Z,10.87
2023-01-02T07:23:06.520Z,10.83
2023-01-02T07:26:09.335Z,10.85
2023-01-02T07:29:12.166Z,10.72
2023-01-02T07:32:14.753Z,10.73
2023-01-02T07:35:17.512Z,10.73
2023-01-02T07:38:21.438Z,10.75
2023-01-02T07:41:25.615Z,10.68
2023-01-02T07:44:28.162Z,10.71
2023-01-02T07:47:30.722Z,10.70
2023-01-02T07:50:33.312Z,10.64
2023-01-02T07:53:38.248Z,10.63
2023-01-02T07:56:40.916Z,10.68
2023-01-02T07:59:44.941Z,10.79
2023-01-02T08:02:49.885Z,10.92
2023-01-02T08:05:52.774Z,10.98
2023-01-02T08:08:56.688Z,11.04
2023-01-02T08:11:59.412Z,11.16
2023-01-02T08:15:02.016Z,11.18
2023-01-02T08:18:04.673Z,11.31
2023-01-02T08:21:08.718Z,11.49
2023-01-02T08:24:12.791Z,11.62
2023-01-02T08:27:15.451Z,11.74
2023-01-02T08:30:18.244Z,11.91
2023-01-02T08:33:21.037Z,12.11
2023-01-02T08:36:23.592Z,12.25
2023-01-02T08:39:27.631Z,12.36
2023-01-02T08:42:30.249Z,12.41
2023-01-02T08:45:32.951Z,12.51
2023-01-02T08:48:36.225Z,12.60
2023-01-02T08:51:39.155Z,12.54
2023-01-02T08:54:43.058Z,12.65
2023-01-02T08:57:45.614Z,12.69
2023-01-02T09:00:48.296Z,12.66
2023-01-02T09:03:51.588Z,12.58
2023-01-02T09:06:54.101Z,12.52
2023-01-02T09:09:58.158Z,12.46
2023-01-02T09:13:00.847Z,12.36
2023-01-02T09:16:03.499Z,12.31
2023-01-02T09:19:06.062Z,12.26
2023-01-02T09:22:09.390Z,12.30
2023-01-02T09:25:14.698Z,12.48
2023-01-02T09:28:20.182Z,12.71
2023-01-02T09:31:23.244Z,12.80
2023-01-02T09:34:25.841Z,13.04
2023-01-02T09:37:28.902Z,13.28
2023-01-02T09:40:33.048Z,13.74
2023-01-02T09:43:38.225Z,14.14
2023-01-02T09:46:45.515Z,14.34
2023-01-02T09:49:49.429Z,14.59
2023-01-02T09:52:56.371Z,14.79
2023-01-02T09:56:05.612Z,15.12
2023-01-02T09:59:13.989Z,15.49
2023-01-02T10:02:27.281Z,15.84
2023-01-02T10:06:00.575Z,16.27
2023-01-02T10:09:08.402Z,16.60
2023-01-02T10:12:16.857Z,16.75
2023-01-02T10:15:23.704Z,16.81
2023-01-02T10:18:31.457Z,17.02
2023-01-02T10:21:35.981Z,17.18
2023-01-02T10:24:42.857Z,17.31
2023-01-02T10:27:50.107Z,17.35
2023-01-02T10:30:56.243Z,17.46
2023-01-02T10:34:00.224Z,17.56
2023-01-02T10:37:08.006Z,17.72
2023-01-02T10:40:11.485Z,17.67
2023-01-02T10:43:16.100Z,17.77
2023-01-02T10:46:18.787Z,18.03
2023-01-02T10:49:21.998Z,18.31
2023-01-02T10:52:27.581Z,18.60
2023-01-02T10:55:31.901Z,18.63
2023-01-02T10:58:36.515Z,18.34
2023-01-02T11:01:50.612Z,18.23
2023-01-02T11:04:53.354Z,17.98
2023-01-02T11:07:56.869Z,17.86
2023-01-02T11:11:01.755Z,17.87
2023-01-02T11:14:09.012Z,17.93
2023-01-02T11:17:15.957Z,18.37
2023-01-02T11:20:29.869Z,18.83
2023-01-02T11:23:36.877Z,19.60
2023-01-02T11:26:40.649Z,19.67
2023-01-02T11:29:47.006Z,19.72
2023-01-02T11:33:02.485Z,19.73
2023-01-02T11:36:16.835Z,19.86
2023-01-02T11:39:22.830Z,19.57
2023-01-02T11:42:47.004Z,19.80
2023-01-02T11:45:51.333Z,19.81
2023-01-02T11:48:57.484Z,19.82
2023-01-02T11:52:03.242Z,19.63
2023-01-02T11:55:16.397Z,19.44
2023-01-02T11:58:24.763Z,19.46
2023-01-02T12:01:34.024Z,19.34
2023-01-02T12:04:36.728Z,19.25
2023-01-02T12:07:43.481Z,19.32
2023-01-02T12:10:52.845Z,19.36
2023-01-02T12:14:02.633Z,19.61
2023-01-02T12:17:12.043Z,19.60
2023-01-02T12:20:24.076Z,19.46
2023-01-02T12:23:51.656Z,19.75
2023-01-02T12:27:00.015Z,19.65
2023-01-02T12:30:10.907Z,19.40
2023-01-02T12:33:36.271Z,19.57
2023-01-02T12:36:50.091Z,19.61
2023-01-02T12:40:28.062Z,19.65
2023-01-02T12:43:41.068Z,19.93
2023-01-02T12:47:11.644Z,19.99
2023-01-02T12:50:28.993Z,20.54
2023-01-02T12:54:19.889Z,20.44
2023-01-02T12:57:21.824Z,20.17
2023-01-02T13:00:49.601Z,20.20
2023-01-02T13:03:58.246Z,20.33
2023-01-02T13:07:05.687Z,20.46
2023-01-02T13:10:14.666Z,20.51
2023-01-02T13:13:17.262Z,21.48
2023-01-02T13:16:25.205Z,21.94
2023-01-02T13:19:35.273Z,21.92
2023-01-02T13:22:44.079Z,21.22
2023-01-02T13:25:48.371Z,21.08
2023-01-02T13:28:55.093Z,21.76
2023-01-02T13:31:59.235Z,21.28
2023-01-02T13:35:03.391Z,20.48
2023-01-02T13:38:08.650Z,19.91
2023-01-02T13:41:15.252Z,19.52
2023-01-02T13:44:17.990Z,19.39
2023-01-02T13:47:30.007Z,19.20
2023-01-02T13:50:37.862Z,19.18
2023-01-02T13:53:43.139Z,19.18
2023-01-02T13:57:16.571Z,19.18
2023-01-02T14:00:35.269Z,18.98
2023-01-02T14:03:38.698Z,18.82
2023-01-02T14:06:46.159Z,18.70
2023-01-02T14:10:15.127Z,18.49
2023-01-02T14:13:25.160Z,18.42
2023-01-02T14:16:44.671Z,18.45
2023-01-02T14:19:47.465Z,18.38
2023-01-02T14:22:51.917Z,18.41
2023-01-02T14:25:56.435Z,18.43
2023-01-02T14:29:00.944Z,18.26
2023-01-02T14:32:07.034Z,18.17
2023-01-02T14:35:25.142Z,18.06
2023-01-02T14:38:30.033Z,18.00
2023-01-02T14:42:31.784Z,17.86
2023-01-02T14:45:36.384Z,17.80
2023-01-02T14:48:43.959Z,17.81
2023-01-02T14:51:48.839Z,17.72
2023-01-02T14:54:54.618Z,17.56
2023-01-02T14:57:57.749Z,17.63
2023-01-02T15:01:04.729Z,17.62
2023-01-02T15:04:17.124Z,17.53
2023-01-02T15:07:25.527Z,17.39
2023-01-02T15:10:28.432Z,17.33
2023-01-02T15:13:33.190Z,17.36
2023-01-02T15:17:00.626Z,17.23
2023-01-02T15:20:03.379Z,17.15
2023-01-02T15:23:06.079Z,17.05
2023-01-02T15:26:33.498Z,16.94
2023-01-02T15:29:37.297Z,16.77
2023-01-02T15:32:48.718Z,16.68
2023-01-02T15:35:55.586Z,16.49
2023-01-02T15:39:04.635Z,16.42
2023-01-02T15:42:29.025Z,16.35
2023-01-02T15:45:31.163Z,16.34
2023-01-02T15:48:35.388Z,16.18
2023-01-02T15:51:42.002Z,16.08
2023-01-02T15:54:45.897Z,15.80
2023-01-02T15:57:53.422Z,15.76
2023-01-02T16:01:14.253Z,15.63
2023-01-02T16:04:26.814Z,15.61
2023-01-02T16:07:29.666Z,15.61
2023-01-02T16:10:32.300Z,15.75
2023-01-02T16:13:54.720Z,15.61
2023-01-02T16:17:02.315Z,15.46
2023-01-02T16:20:11.615Z,15.23
2023-01-02T16:23:17.987Z,15.20
2023-01-02T16:26:21.048Z,15.04
2023-01-02T16:29:24.133Z,14.82
2023-01-02T16:32:29.090Z,14.91
2023-01-02T16:35:34.736Z,14.89
2023-01-02T16:38:47.386Z,14.85
2023-01-02T16:42:11.994Z,14.72
2023-01-02T16:45:16.886Z,14.79
2023-01-02T16:48:21.367Z,14.54
2023-01-02T16:51:25.433Z,14.73
2023-01-02T16:54:28.253Z,14.75
2023-01-02T16:57:31.015Z,14.74
2023-01-02T17:00:39.760Z,14.70
2023-01-02T17:03:46.304Z,14.74
2023-01-02T17:06:50.564Z,14.66
2023-01-02T17:09:53.084Z,14.69
2023-01-02T17:12:55.717Z,14.64
2023-01-02T17:15:58.678Z,14.65
2023-01-02T17:19:01.410Z,14.61
2023-01-02T17:22:05.614Z,14.67
2023-01-02T17:25:10.510Z,14.65
2023-01-02T17:28:13.529Z,14.82
2023-01-02T17:31:19.885Z,14.82
2023-01-02T17:34:25.162Z,14.78
2023-01-02T17:37:29.174Z,14.83
2023-01-02T17:40:32.045Z,14.72
2023-01-02T17:43:34.875Z,14.55
2023-01-02T17:50:00.082Z,14.66
2023-01-02T17:53:04.046Z,14.71
2023-01-02T17:56:21.251Z,14.77
2023-01-02T17:59:25.220Z,14.65
2023-01-02T18:02:28.297Z,14.47
2023-01-02T18:05:31.955Z,14.61
2023-01-02T18:08:37.763Z,14.63
2023-01-02T18:11:40.491Z,14.58
2023-01-02T18:14:45.552Z,14.60
2023-01-02T18:17:48.812Z,14.47
2023-01-02T18:20:51.586Z,14.35
2023-01-02T18:23:58.720Z,14.44
2023-01-02T18:27:11.319Z,14.55
2023-01-02T18:30:18.107Z,14.66
2023-01-02T18:33:21.193Z,14.23
2023-01-02T18:36:25.263Z,14.15
2023-01-02T18:39:34.890Z,13.97
2023-01-02T18:42:37.784Z,13.86
2023-01-02T18:45:40.771Z,13.43
2023-01-02T18:48:43.632Z,13.77
2023-01-02T18:51:46.868Z,13.65
2023-01-02T18:54:55.255Z,13.62
2023-01-02T18:58:01.014Z,13.63
2023-01-02T19:01:16.153Z,13.63
2023-01-02T19:04:27.893Z,13.65
2023-01-02T19:07:33.549Z,13.48
2023-01-02T19:10:39.793Z,13.21
2023-01-02T19:13:41.457Z,13.17
2023-01-02T19:16:44.506Z,13.00
2023-01-02T19:19:47.419Z,13.17
2023-01-02T19:22:50.345Z,12.74
2023-01-02T19:25:55.078Z,12.67
2023-01-02T19:29:00.626Z,12.85
2023-01-02T19:32:05.482Z,12.70
2023-01-02T19:35:51.621Z,12.55
2023-01-02T19:38:54.154Z,12.74
2023-01-02T19:42:15.743Z,12.82
2023-01-02T19:45:19.520Z,12.74
2023-01-02T19:48:22.149Z,12.43
2023-01-02T19:51:25.209Z,12.03
2023-01-02T19:54:27.876Z,12.20
2023-01-02T19:57:31.951Z,12.28
2023-01-02T20:00:34.600Z,12.32
2023-01-02T20:03:37.181Z,12.42
2023-01-02T20:06:39.922Z,12.37
2023-01-02T20:09:42.581Z,12.43
2023-01-02T20:12:46.652Z,12.11
2023-01-02T20:15:49.641Z,12.32
2023-01-02T20:18:52.336Z,12.03
2023-01-02T20:21:55.108Z,12.15
2023-01-02T20:24:57.852Z,12.07
2023-01-02T20:28:03.292Z,12.07
2023-01-02T20:31:06.491Z,12.19
2023-01-02T20:34:09.344Z,12.03
2023-01-02T20:37:12.136Z,12.08
2023-01-02T20:40:14.768Z,11.95
2023-01-02T20:43:18.731Z,12.01
2023-01-02T20:46:21.440Z,12.01
2023-01-02T20:49:25.454Z,12.02
2023-01-02T20:52:28.071Z,11.92
2023-01-02T20:55:30.787Z,11.97
2023-01-02T20:58:35.688Z,11.80
2023-01-02T21:01:38.561Z,11.96
2023-01-02T21:04:41.337Z,11.94
2023-01-02T21:07:44.123Z,11.96
2023-01-02T21:10:46.649Z,11.79
2023-01-02T21:13:50.523Z,11.74
2023-01-02T21:16:54.644Z,11.84
2023-01-02T21:19:57.370Z,11.93
2023-01-02T21:22:59.992Z,11.75
2023-01-02T21:26:02.643Z,11.94
2023-01-02T21:29:06.653Z,11.75
2023-01-02T21:32:09.251Z,11.85
2023-01-02T21:35:11.849Z,11.86
2023-01-02T21:38:14.770Z,11.84
2023-01-02T21:41:34.923Z,11.67
2023-01-02T21:44:39.015Z,11.52
2023-01-02T21:47:41.715Z,11.71
2023-01-02T21:50:44.283Z,11.71
2023-01-02T21:53:47.010Z,11.72
2023-01-02T21:56:49.741Z,11.71
2023-01-02T21:59:53.680Z,11.69
2023-01-02T22:02:56.584Z,11.74
2023-01-02T22:05:59.328Z,11.70
2023-01-02T22:09:02.070Z,11.65
2023-01-02T22:12:07.081Z,11.77
2023-01-02T22:15:12.833Z,11.67
2023-01-02T22:18:15.479Z,11.73
2023-01-02T22:21:18.210Z,11.72
2023-01-02T22:24:23.469Z,11.75
2023-01-02T22:27:26.131Z,11.74
2023-01-02T22:30:34.491Z,11.69
2023-01-02T22:33:38.217Z,11.69
2023-01-02T22:36:40.789Z,11.63
2023-01-02T22:39:43.802Z,11.60
2023-01-02T22:43:01.685Z,11.67
2023-01-02T22:46:10.221Z,11.53
2023-01-02T22:49:14.773Z,11.60
2023-01-02T22:52:17.439Z,11.61
2023-01-02T22:55:21.957Z,11.60
2023-01-02T22:58:25.303Z,11.54
2023-01-02T23:01:33.004Z,11.53
2023-01-02T23:04:36.185Z,11.52
2023-01-02T23:07:38.819Z,11.45
2023-01-02T23:10:44.789Z,11.36
2023-01-02T23:13:54.549Z,11.39
2023-01-02T23:17:18.349Z,11.48
2023-01-02T23:20:20.924Z,11.41
2023-01-02T23:23:23.415Z,11.43
2023-01-02T23:26:29.991Z,11.38
2023-01-02T23:29:33.215Z,11.38
2023-01-02T23:32:37.233Z,11.40
2023-01-02T23:35:39.766Z,11.41
2023-01-02T23:38:43.168Z,11.32
2023-01-02T23:41:46.067Z,11.27
2023-01-02T23:44:48.779Z,11.36
2023-01-02T23:47:52.769Z,11.30
2023-01-02T23:50:58.686Z,11.27
2023-01-02T23:54:01.825Z,11.26
2023-01-02T23:57:04.608Z,11.32
